sensor_id;sensor_type;location;lat;lon;timestamp;P1;durP1;ratioP1;P2;durP2;ratioP2
23046;SDS011;11691;51.462;6.902;2023-02-08T00:01:17;17.20;;;10.63;;
23046;SDS011;11691;51.462;6.902;2023-02-08T00:03:45;19.23;;;10.53;;
23046;SDS011;11691;51.462;6.902;2023-02-08T00:06:11;16.70;;;10.47;;
23046;SDS011;11691;51.462;6.902;2023-02-08T00:08:38;20.13;;;10.70;;
23046;SDS011;11691;51.462;6.902;2023-02-08T00:11:05;24.40;;;12.37;;
23046;SDS011;11691;51.462;6.902;2023-02-08T00:13:31;19.87;;;11.63;;
23046;SDS011;11691;51.462;6.902;2023-02-08T00:15:57;21.97;;;11.87;;
23046;SDS011;11691;51.462;6.902;2023-02-08T00:18:23;21.17;;;11.60;;
23046;SDS011;11691;51.462;6.902;2023-02-08T00:20:49;18.93;;;10.47;;
23046;SDS011;11691;51.462;6.902;2023-02-08T00:23:16;20.10;;;11.10;;
23046;SDS011;11691;51.462;6.902;2023-02-08T00:25:42;18.27;;;11.03;;
23046;SDS011;11691;51.462;6.902;2023-02-08T00:28:11;18.80;;;11.23;;
23046;SDS011;11691;51.462;6.902;2023-02-08T00:30:38;17.27;;;10.97;;
23046;SDS011;11691;51.462;6.902;2023-02-08T00:33:05;19.50;;;10.37;;
23046;SDS011;11691;51.462;6.902;2023-02-08T00:35:31;18.73;;;10.57;;
23046;SDS011;11691;51.462;6.902;2023-02-08T00:37:57;20.33;;;10.17;;
23046;SDS011;11691;51.462;6.902;2023-02-08T00:40:23;17.57;;;10.60;;
23046;SDS011;11691;51.462;6.902;2023-02-08T00:42:49;19.13;;;10.57;;
23046;SDS011;11691;51.462;6.902;2023-02-08T00:45:15;18.00;;;10.80;;
23046;SDS011;11691;51.462;6.902;2023-02-08T00:47:41;19.33;;;11.13;;
23046;SDS011;11691;51.462;6.902;2023-02-08T00:50:08;19.50;;;11.17;;
23046;SDS011;11691;51.462;6.902;2023-02-08T00:52:34;19.33;;;10.40;;
23046;SDS011;11691;51.462;6.902;2023-02-08T00:55:00;19.17;;;10.73;;
23046;SDS011;11691;51.462;6.902;2023-02-08T00:57:26;21.97;;;9.77;;
23046;SDS011;11691;51.462;6.902;2023-02-08T00:59:52;20.47;;;11.03;;
23046;SDS011;11691;51.462;6.902;2023-02-08T01:02:18;18.53;;;10.53;;
23046;SDS011;11691;51.462;6.902;2023-02-08T01:04:44;16.80;;;10.57;;
23046;SDS011;11691;51.462;6.902;2023-02-08T01:07:10;19.77;;;11.50;;
23046;SDS011;11691;51.462;6.902;2023-02-08T01:09:36;20.33;;;11.47;;
23046;SDS011;11691;51.462;6.902;2023-02-08T01:12:02;18.80;;;11.23;;
23046;SDS011;11691;51.462;6.902;2023-02-08T01:14:28;18.33;;;10.33;;
23046;SDS011;11691;51.462;6.902;2023-02-08T01:16:54;19.90;;;11.53;;
23046;SDS011;11691;51.462;6.902;2023-02-08T01:19:20;18.13;;;10.27;;
23046;SDS011;11691;51.462;6.902;2023-02-08T01:21:46;17.00;;;10.23;;
23046;SDS011;11691;51.462;6.902;2023-02-08T01:24:13;21.43;;;11.07;;
23046;SDS011;11691;51.462;6.902;2023-02-08T01:26:39;19.17;;;11.00;;
23046;SDS011;11691;51.462;6.902;2023-02-08T01:29:05;19.23;;;10.37;;
23046;SDS011;11691;51.462;6.902;2023-02-08T01:31:33;19.67;;;11.00;;
23046;SDS011;11691;51.462;6.902;2023-02-08T01:34:00;18.07;;;9.80;;
23046;SDS011;11691;51.462;6.902;2023-02-08T01:36:27;20.40;;;10.50;;
23046;SDS011;11691;51.462;6.902;2023-02-08T01:38:53;20.70;;;9.70;;
23046;SDS011;11691;51.462;6.902;2023-02-08T01:41:27;21.97;;;10.60;;
23046;SDS011;11691;51.462;6.902;2023-02-08T01:46:22;16.10;;;9.27;;
23046;SDS011;11691;51.462;6.902;2023-02-08T01:48:48;19.27;;;10.53;;
23046;SDS011;11691;51.462;6.902;2023-02-08T01:51:16;18.00;;;9.43;;
23046;SDS011;11691;51.462;6.902;2023-02-08T01:53:44;17.13;;;9.97;;
23046;SDS011;11691;51.462;6.902;2023-02-08T01:56:12;14.87;;;9.10;;
23046;SDS011;11691;51.462;6.902;2023-02-08T01:58:43;19.50;;;10.10;;
23046;SDS011;11691;51.462;6.902;2023-02-08T02:01:10;19.67;;;9.87;;
23046;SDS011;11691;51.462;6.902;2023-02-08T02:03:37;14.57;;;8.77;;
23046;SDS011;11691;51.462;6.902;2023-02-08T02:06:05;16.33;;;9.30;;
23046;SDS011;11691;51.462;6.902;2023-02-08T02:08:33;15.27;;;8.87;;
23046;SDS011;11691;51.462;6.902;2023-02-08T02:10:59;17.40;;;10.07;;
23046;SDS011;11691;51.462;6.902;2023-02-08T02:13:25;16.20;;;9.40;;
23046;SDS011;11691;51.462;6.902;2023-02-08T02:15:52;17.33;;;9.20;;
23046;SDS011;11691;51.462;6.902;2023-02-08T02:18:22;15.70;;;8.97;;
23046;SDS011;11691;51.462;6.902;2023-02-08T02:28:51;17.47;;;9.33;;
23046;SDS011;11691;51.462;6.902;2023-02-08T02:39:13;17.77;;;9.17;;
23046;SDS011;11691;51.462;6.902;2023-02-08T02:47:26;16.57;;;9.27;;
23046;SDS011;11691;51.462;6.902;2023-02-08T02:50:04;15.33;;;9.33;;
23046;SDS011;11691;51.462;6.902;2023-02-08T02:52:33;15.67;;;9.03;;
23046;SDS011;11691;51.462;6.902;2023-02-08T02:55:02;13.27;;;8.37;;
23046;SDS011;11691;51.462;6.902;2023-02-08T02:57:30;15.70;;;8.70;;
23046;SDS011;11691;51.462;6.902;2023-02-08T02:59:58;15.70;;;8.53;;
23046;SDS011;11691;51.462;6.902;2023-02-08T03:02:27;16.47;;;9.17;;
23046;SDS011;11691;51.462;6.902;2023-02-08T03:04:55;15.13;;;8.93;;
23046;SDS011;11691;51.462;6.902;2023-02-08T03:20:40;13.47;;;8.27;;
23046;SDS011;11691;51.462;6.902;2023-02-08T03:23:14;13.07;;;8.40;;
23046;SDS011;11691;51.462;6.902;2023-02-08T03:25:51;13.63;;;8.00;;
23046;SDS011;11691;51.462;6.902;2023-02-08T03:31:02;16.37;;;8.87;;
23046;SDS011;11691;51.462;6.902;2023-02-08T03:33:55;13.03;;;7.90;;
23046;SDS011;11691;51.462;6.902;2023-02-08T03:36:24;15.47;;;8.43;;
23046;SDS011;11691;51.462;6.902;2023-02-08T03:38:52;13.93;;;8.67;;
23046;SDS011;11691;51.462;6.902;2023-02-08T03:41:24;14.10;;;7.57;;
23046;SDS011;11691;51.462;6.902;2023-02-08T03:43:55;15.10;;;8.57;;
23046;SDS011;11691;51.462;6.902;2023-02-08T03:46:28;16.83;;;9.00;;
23046;SDS011;11691;51.462;6.902;2023-02-08T03:48:57;14.27;;;8.70;;
23046;SDS011;11691;51.462;6.902;2023-02-08T03:51:27;15.73;;;9.03;;
23046;SDS011;11691;51.462;6.902;2023-02-08T03:53:55;17.17;;;8.67;;
23046;SDS011;11691;51.462;6.902;2023-02-08T03:59:15;14.70;;;8.67;;
23046;SDS011;11691;51.462;6.902;2023-02-08T04:01:58;18.07;;;9.37;;
23046;SDS011;11691;51.462;6.902;2023-02-08T04:04:28;12.90;;;8.27;;
23046;SDS011;11691;51.462;6.902;2023-02-08T04:06:55;17.13;;;8.93;;
23046;SDS011;11691;51.462;6.902;2023-02-08T04:09:21;14.07;;;8.70;;
23046;SDS011;11691;51.462;6.902;2023-02-08T04:11:47;13.77;;;8.63;;
23046;SDS011;11691;51.462;6.902;2023-02-08T04:14:13;16.50;;;9.13;;
23046;SDS011;11691;51.462;6.902;2023-02-08T04:16:40;14.53;;;8.47;;
23046;SDS011;11691;51.462;6.902;2023-02-08T04:19:06;15.87;;;9.00;;
23046;SDS011;11691;51.462;6.902;2023-02-08T04:21:32;14.90;;;8.20;;
23046;SDS011;11691;51.462;6.902;2023-02-08T04:23:58;15.67;;;9.10;;
23046;SDS011;11691;51.462;6.902;2023-02-08T04:26:24;18.73;;;9.50;;
23046;SDS011;11691;51.462;6.902;2023-02-08T04:28:50;18.73;;;11.47;;
23046;SDS011;11691;51.462;6.902;2023-02-08T04:31:16;19.03;;;11.70;;
23046;SDS011;11691;51.462;6.902;2023-02-08T04:33:42;22.57;;;14.20;;
23046;SDS011;11691;51.462;6.902;2023-02-08T04:36:08;22.23;;;16.23;;
23046;SDS011;11691;51.462;6.902;2023-02-08T04:38:34;25.10;;;16.13;;
23046;SDS011;11691;51.462;6.902;2023-02-08T04:41:00;27.13;;;17.07;;
23046;SDS011;11691;51.462;6.902;2023-02-08T04:43:26;27.60;;;17.23;;
23046;SDS011;11691;51.462;6.902;2023-02-08T04:45:52;30.40;;;17.70;;
23046;SDS011;11691;51.462;6.902;2023-02-08T04:48:18;30.07;;;18.50;;
23046;SDS011;11691;51.462;6.902;2023-02-08T04:50:44;29.73;;;20.37;;
23046;SDS011;11691;51.462;6.902;2023-02-08T04:53:11;30.43;;;20.27;;
23046;SDS011;11691;51.462;6.902;2023-02-08T04:55:37;30.83;;;18.80;;
23046;SDS011;11691;51.462;6.902;2023-02-08T04:58:03;26.37;;;18.03;;
23046;SDS011;11691;51.462;6.902;2023-02-08T05:00:29;26.90;;;18.00;;
23046;SDS011;11691;51.462;6.902;2023-02-08T05:02:56;29.67;;;18.43;;
23046;SDS011;11691;51.462;6.902;2023-02-08T05:05:23;29.57;;;18.53;;
23046;SDS011;11691;51.462;6.902;2023-02-08T05:07:49;27.87;;;19.20;;
23046;SDS011;11691;51.462;6.902;2023-02-08T05:10:15;31.07;;;18.10;;
23046;SDS011;11691;51.462;6.902;2023-02-08T05:12:41;29.10;;;19.27;;
23046;SDS011;11691;51.462;6.902;2023-02-08T05:15:07;26.13;;;17.67;;
23046;SDS011;11691;51.462;6.902;2023-02-08T05:17:33;29.13;;;17.47;;
23046;SDS011;11691;51.462;6.902;2023-02-08T05:20:00;28.27;;;17.87;;
23046;SDS011;11691;51.462;6.902;2023-02-08T05:22:27;28.67;;;18.23;;
23046;SDS011;11691;51.462;6.902;2023-02-08T05:24:53;29.80;;;18.00;;
23046;SDS011;11691;51.462;6.902;2023-02-08T05:27:19;24.87;;;16.67;;
23046;SDS011;11691;51.462;6.902;2023-02-08T05:29:45;25.67;;;16.30;;
23046;SDS011;11691;51.462;6.902;2023-02-08T05:32:11;28.47;;;16.63;;
23046;SDS011;11691;51.462;6.902;2023-02-08T05:34:37;26.20;;;16.50;;
23046;SDS011;11691;51.462;6.902;2023-02-08T05:37:03;24.20;;;14.90;;
23046;SDS011;11691;51.462;6.902;2023-02-08T05:39:29;19.47;;;13.23;;
23046;SDS011;11691;51.462;6.902;2023-02-08T05:41:55;23.27;;;13.87;;
23046;SDS011;11691;51.462;6.902;2023-02-08T05:44:21;20.73;;;11.63;;
23046;SDS011;11691;51.462;6.902;2023-02-08T05:46:47;17.37;;;11.13;;
23046;SDS011;11691;51.462;6.902;2023-02-08T05:49:13;23.07;;;10.87;;
23046;SDS011;11691;51.462;6.902;2023-02-08T05:51:39;15.63;;;10.50;;
23046;SDS011;11691;51.462;6.902;2023-02-08T05:54:05;15.03;;;9.63;;
23046;SDS011;11691;51.462;6.902;2023-02-08T05:56:31;16.77;;;9.70;;
23046;SDS011;11691;51.462;6.902;2023-02-08T05:59:01;16.23;;;10.37;;
23046;SDS011;11691;51.462;6.902;2023-02-08T06:01:27;17.37;;;9.80;;
23046;SDS011;11691;51.462;6.902;2023-02-08T06:03:53;17.27;;;10.40;;
23046;SDS011;11691;51.462;6.902;2023-02-08T06:06:19;16.73;;;10.00;;
23046;SDS011;11691;51.462;6.902;2023-02-08T06:08:46;16.20;;;9.40;;
23046;SDS011;11691;51.462;6.902;2023-02-08T06:11:12;14.30;;;9.63;;
23046;SDS011;11691;51.462;6.902;2023-02-08T06:13:38;15.67;;;10.07;;
23046;SDS011;11691;51.462;6.902;2023-02-08T06:16:04;18.83;;;10.27;;
23046;SDS011;11691;51.462;6.902;2023-02-08T06:18:30;16.30;;;9.40;;
23046;SDS011;11691;51.462;6.902;2023-02-08T06:20:56;19.37;;;10.03;;
23046;SDS011;11691;51.462;6.902;2023-02-08T06:23:22;16.70;;;8.90;;
23046;SDS011;11691;51.462;6.902;2023-02-08T06:25:49;15.33;;;9.00;;
23046;SDS011;11691;51.462;6.902;2023-02-08T06:28:15;16.03;;;8.70;;
23046;SDS011;11691;51.462;6.902;2023-02-08T06:30:41;14.93;;;8.17;;
23046;SDS011;11691;51.462;6.902;2023-02-08T06:33:07;13.87;;;8.73;;
23046;SDS011;11691;51.462;6.902;2023-02-08T06:35:33;14.37;;;7.90;;
23046;SDS011;11691;51.462;6.902;2023-02-08T06:37:59;16.07;;;9.50;;
23046;SDS011;11691;51.462;6.902;2023-02-08T06:40:25;16.73;;;10.07;;
23046;SDS011;11691;51.462;6.902;2023-02-08T06:42:51;19.17;;;11.27;;
23046;SDS011;11691;51.462;6.902;2023-02-08T06:45:17;23.73;;;13.87;;
23046;SDS011;11691;51.462;6.902;2023-02-08T06:47:43;19.13;;;12.93;;
23046;SDS011;11691;51.462;6.902;2023-02-08T06:50:09;26.87;;;14.60;;
23046;SDS011;11691;51.462;6.902;2023-02-08T06:52:35;21.93;;;14.07;;
23046;SDS011;11691;51.462;6.902;2023-02-08T06:55:02;23.60;;;15.00;;
23046;SDS011;11691;51.462;6.902;2023-02-08T06:57:28;23.37;;;15.83;;
23046;SDS011;11691;51.462;6.902;2023-02-08T06:59:54;23.67;;;16.23;;
23046;SDS011;11691;51.462;6.902;2023-02-08T07:02:20;23.47;;;16.13;;
23046;SDS011;11691;51.462;6.902;2023-02-08T07:04:46;22.97;;;17.00;;
23046;SDS011;11691;51.462;6.902;2023-02-08T07:07:12;27.57;;;18.23;;
23046;SDS011;11691;51.462;6.902;2023-02-08T07:09:39;29.23;;;18.20;;
23046;SDS011;11691;51.462;6.902;2023-02-08T07:12:05;33.17;;;20.27;;
23046;SDS011;11691;51.462;6.902;2023-02-08T07:14:32;33.37;;;20.63;;
23046;SDS011;11691;51.462;6.902;2023-02-08T07:16:59;32.27;;;20.73;;
23046;SDS011;11691;51.462;6.902;2023-02-08T07:19:25;30.63;;;20.30;;
23046;SDS011;11691;51.462;6.902;2023-02-08T07:21:51;30.47;;;20.67;;
23046;SDS011;11691;51.462;6.902;2023-02-08T07:24:18;29.40;;;20.27;;
23046;SDS011;11691;51.462;6.902;2023-02-08T07:26:44;34.13;;;22.00;;
23046;SDS011;11691;51.462;6.902;2023-02-08T07:29:10;36.97;;;22.10;;
23046;SDS011;11691;51.462;6.902;2023-02-08T07:31:36;32.20;;;20.90;;
23046;SDS011;11691;51.462;6.902;2023-02-08T07:34:01;28.90;;;19.27;;
23046;SDS011;11691;51.462;6.902;2023-02-08T07:36:27;31.27;;;19.50;;
23046;SDS011;11691;51.462;6.902;2023-02-08T07:38:54;27.70;;;18.23;;
23046;SDS011;11691;51.462;6.902;2023-02-08T07:41:20;28.40;;;18.23;;
23046;SDS011;11691;51.462;6.902;2023-02-08T07:43:46;31.10;;;19.13;;
23046;SDS011;11691;51.462;6.902;2023-02-08T07:46:13;29.83;;;19.07;;
23046;SDS011;11691;51.462;6.902;2023-02-08T07:48:40;31.47;;;19.33;;
23046;SDS011;11691;51.462;6.902;2023-02-08T07:51:07;27.23;;;18.97;;
23046;SDS011;11691;51.462;6.902;2023-02-08T07:53:34;30.77;;;19.50;;
23046;SDS011;11691;51.462;6.902;2023-02-08T07:56:00;30.57;;;18.20;;
23046;SDS011;11691;51.462;6.902;2023-02-08T07:58:26;27.00;;;16.80;;
23046;SDS011;11691;51.462;6.902;2023-02-08T08:00:52;24.93;;;15.43;;
23046;SDS011;11691;51.462;6.902;2023-02-08T08:03:18;28.83;;;14.10;;
23046;SDS011;11691;51.462;6.902;2023-02-08T08:05:44;20.00;;;13.40;;
23046;SDS011;11691;51.462;6.902;2023-02-08T08:08:10;17.97;;;11.63;;
23046;SDS011;11691;51.462;6.902;2023-02-08T08:10:37;20.30;;;11.80;;
23046;SDS011;11691;51.462;6.902;2023-02-08T08:13:03;19.83;;;11.17;;
23046;SDS011;11691;51.462;6.902;2023-02-08T08:15:29;19.87;;;11.53;;
23046;SDS011;11691;51.462;6.902;2023-02-08T08:17:55;18.77;;;10.70;;
23046;SDS011;11691;51.462;6.902;2023-02-08T08:20:22;17.90;;;9.77;;
23046;SDS011;11691;51.462;6.902;2023-02-08T08:22:48;19.43;;;8.97;;
23046;SDS011;11691;51.462;6.902;2023-02-08T08:25:14;17.50;;;8.87;;
23046;SDS011;11691;51.462;6.902;2023-02-08T08:27:40;15.03;;;8.97;;
23046;SDS011;11691;51.462;6.902;2023-02-08T08:30:07;16.97;;;8.70;;
23046;SDS011;11691;51.462;6.902;2023-02-08T08:32:33;18.23;;;8.47;;
23046;SDS011;11691;51.462;6.902;2023-02-08T08:34:59;15.57;;;8.00;;
23046;SDS011;11691;51.462;6.902;2023-02-08T08:37:25;13.43;;;8.13;;
23046;SDS011;11691;51.462;6.902;2023-02-08T08:39:51;13.00;;;7.37;;
23046;SDS011;11691;51.462;6.902;2023-02-08T08:42:17;13.63;;;7.80;;
23046;SDS011;11691;51.462;6.902;2023-02-08T08:44:44;14.23;;;7.53;;
23046;SDS011;11691;51.462;6.902;2023-02-08T08:47:10;13.93;;;7.57;;
23046;SDS011;11691;51.462;6.902;2023-02-08T08:49:36;15.90;;;7.70;;
23046;SDS011;11691;51.462;6.902;2023-02-08T08:52:02;11.47;;;6.73;;
23046;SDS011;11691;51.462;6.902;2023-02-08T08:54:31;13.13;;;6.97;;
23046;SDS011;11691;51.462;6.902;2023-02-08T08:56:57;14.60;;;7.40;;
23046;SDS011;11691;51.462;6.902;2023-02-08T08:59:23;12.50;;;6.60;;
23046;SDS011;11691;51.462;6.902;2023-02-08T09:01:49;12.93;;;7.00;;
23046;SDS011;11691;51.462;6.902;2023-02-08T09:04:15;13.53;;;7.13;;
23046;SDS011;11691;51.462;6.902;2023-02-08T09:06:41;10.90;;;6.73;;
23046;SDS011;11691;51.462;6.902;2023-02-08T09:09:07;11.97;;;6.73;;
23046;SDS011;11691;51.462;6.902;2023-02-08T09:11:33;17.83;;;7.47;;
23046;SDS011;11691;51.462;6.902;2023-02-08T09:14:02;11.87;;;6.30;;
23046;SDS011;11691;51.462;6.902;2023-02-08T09:16:28;13.10;;;6.60;;
23046;SDS011;11691;51.462;6.902;2023-02-08T09:18:54;10.67;;;6.37;;
23046;SDS011;11691;51.462;6.902;2023-02-08T09:21:21;9.33;;;5.33;;
23046;SDS011;11691;51.462;6.902;2023-02-08T09:23:50;12.10;;;5.27;;
23046;SDS011;11691;51.462;6.902;2023-02-08T09:26:17;10.53;;;6.07;;
23046;SDS011;11691;51.462;6.902;2023-02-08T09:28:43;10.27;;;6.10;;
23046;SDS011;11691;51.462;6.902;2023-02-08T09:31:10;12.47;;;6.67;;
23046;SDS011;11691;51.462;6.902;2023-02-08T09:33:39;8.37;;;5.60;;
23046;SDS011;11691;51.462;6.902;2023-02-08T09:36:05;11.43;;;5.93;;
23046;SDS011;11691;51.462;6.902;2023-02-08T09:38:32;12.53;;;7.20;;
23046;SDS011;11691;51.462;6.902;2023-02-08T09:43:34;12.00;;;5.83;;
23046;SDS011;11691;51.462;6.902;2023-02-08T09:46:21;9.27;;;5.43;;
23046;SDS011;11691;51.462;6.902;2023-02-08T09:48:51;10.70;;;5.60;;
23046;SDS011;11691;51.462;6.902;2023-02-08T09:51:39;11.57;;;5.73;;
23046;SDS011;11691;51.462;6.902;2023-02-08T09:56:33;8.57;;;4.60;;
23046;SDS011;11691;51.462;6.902;2023-02-08T09:59:04;8.67;;;5.20;;
23046;SDS011;11691;51.462;6.902;2023-02-08T10:01:31;9.60;;;4.80;;
23046;SDS011;11691;51.462;6.902;2023-02-08T10:03:59;8.43;;;4.50;;
23046;SDS011;11691;51.462;6.902;2023-02-08T10:06:32;8.53;;;4.43;;
23046;SDS011;11691;51.462;6.902;2023-02-08T10:09:00;6.73;;;4.10;;
23046;SDS011;11691;51.462;6.902;2023-02-08T10:17:26;9.63;;;4.60;;
23046;SDS011;11691;51.462;6.902;2023-02-08T10:27:39;7.47;;;4.43;;
23046;SDS011;11691;51.462;6.902;2023-02-08T10:30:12;11.30;;;4.07;;
23046;SDS011;11691;51.462;6.902;2023-02-08T10:33:00;7.10;;;4.45;;
23046;SDS011;11691;51.462;6.902;2023-02-08T10:37:53;7.75;;;4.13;;
23046;SDS011;11691;51.462;6.902;2023-02-08T10:40:33;8.98;;;4.13;;
23046;SDS011;11691;51.462;6.902;2023-02-08T10:43:08;5.95;;;3.38;;
23046;SDS011;11691;51.462;6.902;2023-02-08T10:45:42;6.28;;;3.60;;
23046;SDS011;11691;51.462;6.902;2023-02-08T10:48:17;7.28;;;3.90;;
23046;SDS011;11691;51.462;6.902;2023-02-08T10:51:13;5.65;;;2.97;;
23046;SDS011;11691;51.462;6.902;2023-02-08T10:53:39;6.95;;;3.53;;
23046;SDS011;11691;51.462;6.902;2023-02-08T10:56:05;5.82;;;3.65;;
23046;SDS011;11691;51.462;6.902;2023-02-08T10:58:41;6.53;;;4.10;;
23046;SDS011;11691;51.462;6.902;2023-02-08T11:01:07;5.05;;;3.45;;
23046;SDS011;11691;51.462;6.902;2023-02-08T11:03:33;6.95;;;3.42;;
23046;SDS011;11691;51.462;6.902;2023-02-08T11:06:02;4.80;;;3.13;;
23046;SDS011;11691;51.462;6.902;2023-02-08T11:08:28;8.05;;;3.30;;
23046;SDS011;11691;51.462;6.902;2023-02-08T11:13:33;6.00;;;4.05;;
23046;SDS011;11691;51.462;6.902;2023-02-08T11:16:03;5.00;;;3.00;;
23046;SDS011;11691;51.462;6.902;2023-02-08T11:18:39;6.70;;;3.55;;
23046;SDS011;11691;51.462;6.902;2023-02-08T11:21:27;5.97;;;3.22;;
23046;SDS011;11691;51.462;6.902;2023-02-08T11:23:57;5.43;;;3.63;;
23046;SDS011;11691;51.462;6.902;2023-02-08T11:31:24;7.00;;;3.63;;
23046;SDS011;11691;51.462;6.902;2023-02-08T11:33:57;5.38;;;3.35;;
23046;SDS011;11691;51.462;6.902;2023-02-08T11:36:24;7.28;;;3.35;;
23046;SDS011;11691;51.462;6.902;2023-02-08T11:38:50;7.32;;;3.40;;
23046;SDS011;11691;51.462;6.902;2023-02-08T11:41:18;4.57;;;3.03;;
23046;SDS011;11691;51.462;6.902;2023-02-08T11:43:55;5.25;;;3.28;;
23046;SDS011;11691;51.462;6.902;2023-02-08T11:46:32;6.30;;;3.50;;
23046;SDS011;11691;51.462;6.902;2023-02-08T11:48:59;6.93;;;3.60;;
23046;SDS011;11691;51.462;6.902;2023-02-08T11:51:32;6.80;;;3.38;;
23046;SDS011;11691;51.462;6.902;2023-02-08T11:54:00;4.97;;;3.00;;
23046;SDS011;11691;51.462;6.902;2023-02-08T11:56:27;4.70;;;3.10;;
23046;SDS011;11691;51.462;6.902;2023-02-08T11:58:58;5.72;;;3.13;;
23046;SDS011;11691;51.462;6.902;2023-02-08T12:01:25;4.85;;;3.15;;
23046;SDS011;11691;51.462;6.902;2023-02-08T12:03:57;5.43;;;3.05;;
23046;SDS011;11691;51.462;6.902;2023-02-08T12:09:14;7.20;;;3.22;;
23046;SDS011;11691;51.462;6.902;2023-02-08T12:12:02;6.68;;;3.38;;
23046;SDS011;11691;51.462;6.902;2023-02-08T12:17:22;6.07;;;3.17;;
23046;SDS011;11691;51.462;6.902;2023-02-08T12:22:22;6.30;;;3.33;;
23046;SDS011;11691;51.462;6.902;2023-02-08T12:37:48;5.07;;;2.28;;
23046;SDS011;11691;51.462;6.902;2023-02-08T12:40:40;4.72;;;2.20;;
23046;SDS011;11691;51.462;6.902;2023-02-08T12:57:18;7.00;;;2.38;;
23046;SDS011;11691;51.462;6.902;2023-02-08T12:59:47;4.28;;;1.90;;
23046;SDS011;11691;51.462;6.902;2023-02-08T13:04:42;4.60;;;2.30;;
23046;SDS011;11691;51.462;6.902;2023-02-08T13:07:11;4.00;;;2.10;;
23046;SDS011;11691;51.462;6.902;2023-02-08T13:09:47;4.07;;;2.22;;
23046;SDS011;11691;51.462;6.902;2023-02-08T13:12:18;3.65;;;2.22;;
23046;SDS011;11691;51.462;6.902;2023-02-08T13:14:51;3.60;;;2.00;;
23046;SDS011;11691;51.462;6.902;2023-02-08T13:17:23;3.88;;;1.70;;
23046;SDS011;11691;51.462;6.902;2023-02-08T13:20:01;3.83;;;1.80;;
23046;SDS011;11691;51.462;6.902;2023-02-08T13:22:32;2.67;;;1.90;;
23046;SDS011;11691;51.462;6.902;2023-02-08T13:25:01;5.72;;;2.50;;
23046;SDS011;11691;51.462;6.902;2023-02-08T13:27:28;4.27;;;2.07;;
23046;SDS011;11691;51.462;6.902;2023-02-08T13:29:54;5.00;;;2.13;;
23046;SDS011;11691;51.462;6.902;2023-02-08T13:34:52;3.27;;;1.83;;
23046;SDS011;11691;51.462;6.902;2023-02-08T13:37:22;4.53;;;2.20;;
23046;SDS011;11691;51.462;6.902;2023-02-08T13:39:50;4.17;;;2.33;;
23046;SDS011;11691;51.462;6.902;2023-02-08T13:44:53;3.33;;;1.80;;
23046;SDS011;11691;51.462;6.902;2023-02-08T13:47:29;4.80;;;2.20;;
23046;SDS011;11691;51.462;6.902;2023-02-08T13:50:02;5.33;;;2.10;;
23046;SDS011;11691;51.462;6.902;2023-02-08T13:57:50;3.90;;;2.35;;
23046;SDS011;11691;51.462;6.902;2023-02-08T14:02:58;4.27;;;2.43;;
23046;SDS011;11691;51.462;6.902;2023-02-08T14:05:33;3.37;;;2.40;;
23046;SDS011;11691;51.462;6.902;2023-02-08T14:08:19;4.60;;;2.67;;
23046;SDS011;11691;51.462;6.902;2023-02-08T14:10:49;4.43;;;2.40;;
23046;SDS011;11691;51.462;6.902;2023-02-08T14:18:40;4.60;;;2.60;;
23046;SDS011;11691;51.462;6.902;2023-02-08T14:21:38;5.00;;;2.50;;
23046;SDS011;11691;51.462;6.902;2023-02-08T14:24:07;3.57;;;2.40;;
23046;SDS011;11691;51.462;6.902;2023-02-08T14:26:43;3.33;;;2.08;;
23046;SDS011;11691;51.462;6.902;2023-02-08T14:29:15;3.33;;;2.17;;
23046;SDS011;11691;51.462;6.902;2023-02-08T14:31:51;6.57;;;2.77;;
23046;SDS011;11691;51.462;6.902;2023-02-08T14:36:46;5.53;;;2.75;;
23046;SDS011;11691;51.462;6.902;2023-02-08T14:39:24;4.90;;;2.90;;
23046;SDS011;11691;51.462;6.902;2023-02-08T14:41:57;4.93;;;2.30;;
23046;SDS011;11691;51.462;6.902;2023-02-08T14:49:41;4.63;;;2.30;;
23046;SDS011;11691;51.462;6.902;2023-02-08T14:52:09;3.50;;;2.20;;
23046;SDS011;11691;51.462;6.902;2023-02-08T14:57:25;5.33;;;2.77;;
23046;SDS011;11691;51.462;6.902;2023-02-08T14:59:57;3.50;;;2.43;;
23046;SDS011;11691;51.462;6.902;2023-02-08T15:02:24;4.23;;;2.63;;
23046;SDS011;11691;51.462;6.902;2023-02-08T15:04:55;3.40;;;2.37;;
23046;SDS011;11691;51.462;6.902;2023-02-08T15:09:57;7.50;;;3.67;;
23046;SDS011;11691;51.462;6.902;2023-02-08T15:12:33;9.90;;;3.63;;
23046;SDS011;11691;51.462;6.902;2023-02-08T15:15:00;13.73;;;3.93;;
23046;SDS011;11691;51.462;6.902;2023-02-08T15:17:35;10.10;;;2.97;;
23046;SDS011;11691;51.462;6.902;2023-02-08T15:20:02;9.73;;;2.50;;
23046;SDS011;11691;51.462;6.902;2023-02-08T15:22:33;4.13;;;2.40;;
23046;SDS011;11691;51.462;6.902;2023-02-08T15:25:19;4.10;;;2.40;;
23046;SDS011;11691;51.462;6.902;2023-02-08T15:27:50;5.03;;;2.40;;
23046;SDS011;11691;51.462;6.902;2023-02-08T15:30:21;8.20;;;2.47;;
23046;SDS011;11691;51.462;6.902;2023-02-08T15:32:47;5.47;;;1.90;;
23046;SDS011;11691;51.462;6.902;2023-02-08T15:35:14;6.70;;;2.10;;
23046;SDS011;11691;51.462;6.902;2023-02-08T15:37:44;3.70;;;1.90;;
23046;SDS011;11691;51.462;6.902;2023-02-08T15:40:24;3.53;;;2.03;;
23046;SDS011;11691;51.462;6.902;2023-02-08T15:42:52;9.20;;;2.73;;
23046;SDS011;11691;51.462;6.902;2023-02-08T15:45:27;9.27;;;2.50;;
23046;SDS011;11691;51.462;6.902;2023-02-08T15:47:54;6.83;;;2.20;;
23046;SDS011;11691;51.462;6.902;2023-02-08T15:50:21;3.40;;;1.80;;
23046;SDS011;11691;51.462;6.902;2023-02-08T15:52:48;3.80;;;1.90;;
23046;SDS011;11691;51.462;6.902;2023-02-08T15:55:16;5.00;;;2.10;;
23046;SDS011;11691;51.462;6.902;2023-02-08T15:57:47;5.00;;;2.50;;
23046;SDS011;11691;51.462;6.902;2023-02-08T16:00:23;5.07;;;2.50;;
23046;SDS011;11691;51.462;6.902;2023-02-08T16:02:55;5.57;;;2.17;;
23046;SDS011;11691;51.462;6.902;2023-02-08T16:05:25;4.77;;;2.43;;
23046;SDS011;11691;51.462;6.902;2023-02-08T16:07:52;6.43;;;2.53;;
23046;SDS011;11691;51.462;6.902;2023-02-08T16:12:57;4.10;;;2.50;;
23046;SDS011;11691;51.462;6.902;2023-02-08T16:15:37;6.40;;;2.47;;
23046;SDS011;11691;51.462;6.902;2023-02-08T16:18:03;5.43;;;2.10;;
23046;SDS011;11691;51.462;6.902;2023-02-08T16:20:31;3.17;;;2.20;;
23046;SDS011;11691;51.462;6.902;2023-02-08T16:25:44;3.33;;;1.83;;
23046;SDS011;11691;51.462;6.902;2023-02-08T16:28:28;3.97;;;2.17;;
23046;SDS011;11691;51.462;6.902;2023-02-08T16:30:55;4.87;;;2.37;;
23046;SDS011;11691;51.462;6.902;2023-02-08T16:33:23;6.40;;;3.10;;
23046;SDS011;11691;51.462;6.902;2023-02-08T16:35:49;6.00;;;3.20;;
23046;SDS011;11691;51.462;6.902;2023-02-08T16:38:20;5.63;;;2.63;;
23046;SDS011;11691;51.462;6.902;2023-02-08T16:40:50;4.27;;;2.60;;
23046;SDS011;11691;51.462;6.902;2023-02-08T16:45:43;15.37;;;3.30;;
23046;SDS011;11691;51.462;6.902;2023-02-08T16:48:25;7.93;;;2.73;;
23046;SDS011;11691;51.462;6.902;2023-02-08T16:50:51;6.10;;;2.37;;
23046;SDS011;11691;51.462;6.902;2023-02-08T16:53:17;7.50;;;2.73;;
23046;SDS011;11691;51.462;6.902;2023-02-08T16:55:43;4.43;;;2.63;;
23046;SDS011;11691;51.462;6.902;2023-02-08T16:58:12;4.70;;;2.63;;
23046;SDS011;11691;51.462;6.902;2023-02-08T17:00:39;6.87;;;2.43;;
23046;SDS011;11691;51.462;6.902;2023-02-08T17:03:05;10.80;;;3.20;;
23046;SDS011;11691;51.462;6.902;2023-02-08T17:05:35;9.77;;;2.90;;
23046;SDS011;11691;51.462;6.902;2023-02-08T17:08:02;10.93;;;3.03;;
23046;SDS011;11691;51.462;6.902;2023-02-08T17:10:31;9.50;;;3.00;;
23046;SDS011;11691;51.462;6.902;2023-02-08T17:12:58;5.17;;;2.87;;